createdAt,value
2022-10-14T00:02:01.331Z,63.90
2022-10-14T00:04:29.891Z,63.90
2022-10-14T00:06:57.145Z,63.90
2022-10-14T00:09:23.861Z,63.70
2022-10-14T00:11:50.651Z,63.70
2022-10-14T00:14:20.086Z,63.70
2022-10-14T00:16:48.813Z,63.70
2022-10-14T00:19:15.604Z,63.70
2022-10-14T00:21:44.752Z,64.10
2022-10-14T00:24:13.977Z,63.60
2022-10-14T00:26:41.767Z,63.60
2022-10-14T00:29:12.627Z,63.70
2022-10-14T00:31:39.473Z,63.70
2022-10-14T00:34:06.152Z,63.70
2022-10-14T00:36:32.870Z,63.80
2022-10-14T00:38:59.546Z,63.70
2022-10-14T00:41:28.949Z,63.60
2022-10-14T00:44:00.465Z,63.70
2022-10-14T00:46:30.374Z,63.70
2022-10-14T00:48:59.347Z,63.70
2022-10-14T00:51:26.467Z,63.70
2022-10-14T00:53:53.292Z,63.70
2022-10-14T00:56:24.790Z,63.40
2022-10-14T00:58:53.300Z,63.30
2022-10-14T01:01:20.258Z,63.10
2022-10-14T01:03:47.218Z,62.90
2022-10-14T01:06:46.061Z,62.70
2022-10-14T01:09:12.655Z,62.40
2022-10-14T01:11:42.299Z,62.60
2022-10-14T01:14:22.920Z,62.50
2022-10-14T01:16:58.846Z,62.50
2022-10-14T01:20:09.236Z,62.70
2022-10-14T01:22:49.476Z,62.80
2022-10-14T01:25:25.911Z,63.10
2022-10-14T01:28:07.347Z,62.60
2022-10-14T01:30:45.791Z,62.20
2022-10-14T01:33:27.962Z,62.00
2022-10-14T01:36:15.597Z,61.90
2022-10-14T01:38:51.555Z,61.70
2022-10-14T01:41:25.056Z,61.90
2022-10-14T01:43:55.335Z,61.90
2022-10-14T01:46:25.959Z,62.10
2022-10-14T01:48:58.070Z,62.50
2022-10-14T01:51:34.616Z,62.60
2022-10-14T01:54:09.489Z,62.80
2022-10-14T01:56:40.317Z,62.70
2022-10-14T01:59:11.834Z,63.00
2022-10-14T02:01:38.570Z,63.20
2022-10-14T02:04:18.761Z,63.50
2022-10-14T02:07:13.943Z,63.60
2022-10-14T02:10:01.085Z,63.80
2022-10-14T02:13:04.781Z,63.80
2022-10-14T02:16:02.048Z,63.90
2022-10-14T02:18:41.188Z,63.80
2022-10-14T02:21:28.070Z,64.00
2022-10-14T02:24:02.306Z,64.20
2022-10-14T02:26:30.955Z,64.20
2022-10-14T02:28:58.167Z,64.10
2022-10-14T02:31:27.812Z,64.80
2022-10-14T02:33:58.352Z,63.90
2022-10-14T02:36:26.841Z,64.10
2022-10-14T02:38:56.031Z,64.10
2022-10-14T02:41:27.247Z,64.30
2022-10-14T02:43:53.975Z,64.40
2022-10-14T02:46:21.805Z,64.50
2022-10-14T02:48:49.698Z,64.50
2022-10-14T02:51:16.833Z,64.50
2022-10-14T02:53:43.733Z,64.50
2022-10-14T02:56:13.279Z,64.40
2022-10-14T02:58:40.195Z,64.40
2022-10-14T03:01:07.394Z,64.70
2022-10-14T03:03:34.046Z,64.70
2022-10-14T03:06:00.748Z,64.80
2022-10-14T03:08:28.513Z,64.90
2022-10-14T03:10:55.212Z,65.00
2022-10-14T03:13:21.921Z,64.90
2022-10-14T03:15:50.483Z,65.10
2022-10-14T03:18:17.526Z,65.20
2022-10-14T03:20:44.928Z,65.30
2022-10-14T03:23:12.320Z,65.30
2022-10-14T03:25:39.694Z,65.40
2022-10-14T03:28:06.458Z,65.50
2022-10-14T03:30:33.129Z,65.50
2022-10-14T03:32:59.878Z,65.60
2022-10-14T03:35:26.561Z,65.60
2022-10-14T03:37:54.706Z,65.70
2022-10-14T03:40:22.957Z,65.90
2022-10-14T03:42:50.799Z,66.00
2022-10-14T03:45:17.638Z,66.70
2022-10-14T03:47:44.389Z,66.30
2022-10-14T03:50:11.051Z,66.40
2022-10-14T03:52:37.894Z,66.50
2022-10-14T03:55:05.010Z,66.60
2022-10-14T03:57:31.658Z,66.70
2022-10-14T03:59:58.399Z,66.80
2022-10-14T04:02:25.119Z,66.80
2022-10-14T04:04:51.810Z,66.90
2022-10-14T04:07:18.444Z,67.00
2022-10-14T04:09:45.160Z,66.90
2022-10-14T04:12:11.956Z,67.00
2022-10-14T04:14:38.711Z,67.00
2022-10-14T04:17:05.387Z,67.10
2022-10-14T04:19:32.084Z,67.20
2022-10-14T04:21:58.750Z,67.20
2022-10-14T04:24:25.605Z,67.40
2022-10-14T04:26:52.843Z,67.40
2022-10-14T04:29:19.728Z,67.50
2022-10-14T04:31:46.457Z,67.70
2022-10-14T04:34:13.261Z,67.80
2022-10-14T04:36:40.235Z,67.80
2022-10-14T04:39:06.951Z,67.90
2022-10-14T04:41:33.662Z,67.90
2022-10-14T04:44:00.324Z,68.10
2022-10-14T04:46:27.012Z,68.20
2022-10-14T04:48:54.375Z,68.30
2022-10-14T04:51:21.234Z,68.40
2022-10-14T04:53:47.960Z,68.30
2022-10-14T04:56:14.620Z,68.50
2022-10-14T04:58:41.303Z,68.60
2022-10-14T05:01:07.955Z,68.70
2022-10-14T05:03:34.676Z,68.90
2022-10-14T05:06:01.323Z,69.00
2022-10-14T05:08:28.074Z,69.10
2022-10-14T05:10:54.823Z,69.00
2022-10-14T05:13:21.660Z,69.10
2022-10-14T05:15:48.394Z,69.20
2022-10-14T05:18:15.179Z,69.10
2022-10-14T05:20:41.881Z,69.20
2022-10-14T05:23:08.505Z,69.40
2022-10-14T05:25:35.177Z,69.70
2022-10-14T05:28:01.863Z,69.80
2022-10-14T05:30:33.691Z,69.80
2022-10-14T05:33:01.395Z,70.10
2022-10-14T05:35:53.593Z,69.90
2022-10-14T05:38:14.960Z,69.80
2022-10-14T05:40:41.847Z,69.60
2022-10-14T05:43:08.605Z,69.70
2022-10-14T05:45:35.245Z,69.60
2022-10-14T05:48:02.958Z,69.70
2022-10-14T05:50:29.704Z,69.80
2022-10-14T05:52:56.368Z,69.90
2022-10-14T05:55:23.109Z,70.00
2022-10-14T05:57:49.959Z,70.20
2022-10-14T06:00:24.639Z,70.30
2022-10-14T06:02:52.400Z,70.40
2022-10-14T06:05:19.059Z,71.10
2022-10-14T06:07:45.687Z,70.80
2022-10-14T06:10:12.357Z,70.90
2022-10-14T06:12:39.100Z,70.90
2022-10-14T06:15:06.352Z,71.00
2022-10-14T06:17:33.063Z,71.20
2022-10-14T06:19:59.700Z,71.40
2022-10-14T06:22:28.756Z,71.90
2022-10-14T06:24:56.788Z,72.20
2022-10-14T06:27:25.051Z,72.60
2022-10-14T06:29:51.717Z,73.00
2022-10-14T06:32:18.477Z,73.30
2022-10-14T06:34:45.715Z,73.50
2022-10-14T06:37:12.443Z,74.40
2022-10-14T06:39:39.220Z,74.10
2022-10-14T06:42:09.478Z,74.40
2022-10-14T06:44:38.900Z,74.60
2022-10-14T06:47:07.162Z,74.70
2022-10-14T06:49:34.045Z,75.00
2022-10-14T06:52:00.685Z,75.00
2022-10-14T06:54:27.401Z,75.20
2022-10-14T06:56:54.160Z,75.50
2022-10-14T06:59:20.941Z,75.70
2022-10-14T07:01:47.836Z,76.50
2022-10-14T07:04:14.576Z,76.00
2022-10-14T07:06:41.991Z,76.10
2022-10-14T07:09:08.677Z,76.20
2022-10-14T07:11:35.530Z,76.40
2022-10-14T07:14:02.349Z,76.60
2022-10-14T07:16:29.427Z,76.80
2022-10-14T07:18:56.069Z,77.00
2022-10-14T07:21:22.865Z,77.50
2022-10-14T07:23:49.638Z,77.10
2022-10-14T07:26:16.296Z,77.30
2022-10-14T07:28:44.220Z,77.50
2022-10-14T07:31:11.596Z,77.70
2022-10-14T07:33:40.230Z,77.80
2022-10-14T07:36:09.840Z,78.00
2022-10-14T07:38:37.236Z,77.60
2022-10-14T07:41:08.001Z,77.70
2022-10-14T07:43:35.041Z,78.30
2022-10-14T07:46:05.519Z,78.60
2022-10-14T07:48:52.250Z,79.00
2022-10-14T07:51:20.488Z,79.10
2022-10-14T07:53:48.554Z,79.10
2022-10-14T07:56:15.190Z,79.30
2022-10-14T07:58:44.507Z,79.50
2022-10-14T08:01:11.477Z,79.80
2022-10-14T08:03:39.173Z,79.90
2022-10-14T08:06:06.092Z,80.20
2022-10-14T08:08:32.931Z,80.10
2022-10-14T08:11:12.490Z,80.30
2022-10-14T08:13:43.346Z,80.60
2022-10-14T08:16:20.444Z,80.50
2022-10-14T08:18:48.140Z,80.80
2022-10-14T08:21:15.923Z,80.80
2022-10-14T08:23:43.088Z,80.80
2022-10-14T08:26:24.074Z,80.90
2022-10-14T08:28:54.502Z,81.20
2022-10-14T08:31:21.825Z,81.20
2022-10-14T08:33:48.796Z,81.30
2022-10-14T08:36:19.232Z,81.30
2022-10-14T08:38:46.521Z,81.50
2022-10-14T08:41:13.201Z,81.60
2022-10-14T08:44:19.398Z,81.60
2022-10-14T08:46:52.665Z,81.80
2022-10-14T08:49:42.607Z,81.70
2022-10-14T08:52:22.304Z,81.80
2022-10-14T08:54:55.590Z,81.90
2022-10-14T08:57:27.010Z,81.90
2022-10-14T08:59:54.478Z,82.00
2022-10-14T09:02:31.007Z,82.10
2022-10-14T09:04:59.834Z,82.20
2022-10-14T09:07:26.737Z,82.30
2022-10-14T09:09:58.428Z,82.40
2022-10-14T09:12:28.780Z,82.60
2022-10-14T09:15:15.705Z,82.60
2022-10-14T09:18:22.892Z,82.80
2022-10-14T09:20:50.627Z,82.80
2022-10-14T09:23:18.781Z,82.70
2022-10-14T09:25:55.996Z,82.90
2022-10-14T09:28:41.189Z,83.00
2022-10-14T09:31:11.592Z,83.00
2022-10-14T09:33:42.273Z,83.10
2022-10-14T09:36:29.774Z,83.20
2022-10-14T09:39:05.368Z,83.40
2022-10-14T09:41:33.346Z,83.30
2022-10-14T09:44:22.071Z,83.40
2022-10-14T09:46:52.462Z,83.60
2022-10-14T09:49:29.228Z,83.40
2022-10-14T09:51:57.645Z,83.50
2022-10-14T09:54:28.100Z,83.60
2022-10-14T09:57:08.558Z,83.70
2022-10-14T10:00:01.080Z,83.80
2022-10-14T10:02:42.049Z,83.90
2022-10-14T10:05:22.096Z,83.80
2022-10-14T10:08:03.276Z,83.80
2022-10-14T10:10:30.876Z,83.90
2022-10-14T10:13:02.343Z,83.60
2022-10-14T10:15:29.616Z,83.80
2022-10-14T10:17:56.838Z,83.90
2022-10-14T10:20:33.633Z,84.00
2022-10-14T10:23:25.264Z,84.10
2022-10-14T10:25:52.517Z,84.20
2022-10-14T10:28:31.890Z,84.10
2022-10-14T10:31:03.741Z,84.50
2022-10-14T10:33:49.123Z,84.60
2022-10-14T10:36:26.357Z,84.70
2022-10-14T10:39:05.679Z,84.70
2022-10-14T10:42:14.895Z,84.80
2022-10-14T10:44:49.262Z,84.60
2022-10-14T10:47:42.186Z,84.60
2022-10-14T10:50:38.028Z,84.80
2022-10-14T10:53:25.098Z,84.70
2022-10-14T10:55:57.804Z,84.70
2022-10-14T10:58:28.087Z,84.50
2022-10-14T11:01:01.766Z,84.70
2022-10-14T11:03:48.601Z,84.70
2022-10-14T11:06:48.088Z,84.70
2022-10-14T11:09:41.534Z,84.70
2022-10-14T11:12:23.083Z,84.60
2022-10-14T11:15:26.163Z,84.60
2022-10-14T11:18:08.715Z,84.60
2022-10-14T11:20:46.748Z,84.50
2022-10-14T11:23:39.553Z,84.50
2022-10-14T11:26:28.994Z,84.50
2022-10-14T11:29:01.583Z,84.40
2022-10-14T11:31:47.192Z,84.50
2022-10-14T11:34:35.708Z,84.50
2022-10-14T11:37:38.011Z,84.40
2022-10-14T11:40:26.968Z,84.60
2022-10-14T11:43:39.415Z,84.40
2022-10-14T11:46:17.126Z,84.60
2022-10-14T11:48:57.136Z,84.40
2022-10-14T11:51:40.559Z,84.60
2022-10-14T11:54:18.385Z,84.50
2022-10-14T11:56:56.666Z,84.60
2022-10-14T11:59:37.769Z,84.60
2022-10-14T12:02:35.524Z,84.80
2022-10-14T12:05:06.495Z,84.80
2022-10-14T12:07:50.244Z,84.70
2022-10-14T12:10:26.912Z,84.90
2022-10-14T12:12:54.983Z,85.50
2022-10-14T12:15:26.729Z,84.90
2022-10-14T12:18:00.432Z,85.00
2022-10-14T12:20:45.832Z,84.90
2022-10-14T12:23:27.816Z,85.00
2022-10-14T12:26:10.710Z,85.00
2022-10-14T12:28:38.856Z,85.00
2022-10-14T12:31:35.282Z,85.10
2022-10-14T12:34:10.867Z,85.20
2022-10-14T12:36:39.229Z,85.20
2022-10-14T12:39:19.271Z,85.20
2022-10-14T12:41:56.028Z,85.30
2022-10-14T12:44:28.046Z,85.20
2022-10-14T12:46:54.714Z,85.20
2022-10-14T12:49:34.593Z,85.20
2022-10-14T12:52:05.807Z,85.30
2022-10-14T12:54:34.349Z,85.20
2022-10-14T12:57:04.768Z,85.30
2022-10-14T12:59:36.370Z,85.20
2022-10-14T13:02:21.481Z,85.30
2022-10-14T13:04:51.716Z,85.40
2022-10-14T13:10:41.716Z,85.30
2022-10-14T13:13:48.003Z,85.20
2022-10-14T13:16:23.608Z,85.10
2022-10-14T13:18:57.955Z,85.10
2022-10-14T13:21:36.424Z,85.10
2022-10-14T13:24:18.033Z,85.10
2022-10-14T13:26:54.624Z,85.10
2022-10-14T13:29:45.573Z,85.10
2022-10-14T13:32:35.511Z,85.10
2022-10-14T13:35:27.407Z,85.10
2022-10-14T13:43:08.582Z,85.10
2022-10-14T13:48:21.542Z,85.10
2022-10-14T13:50:56.058Z,85.00
2022-10-14T13:53:29.024Z,84.80
2022-10-14T13:55:57.550Z,84.80
2022-10-14T13:58:24.892Z,84.70
2022-10-14T14:01:00.589Z,84.20
2022-10-14T14:03:43.051Z,84.10
2022-10-14T14:06:23.065Z,84.20
2022-10-14T14:08:56.704Z,84.10
2022-10-14T14:11:26.591Z,84.10
2022-10-14T14:14:01.180Z,84.20
2022-10-14T14:16:41.296Z,84.20
2022-10-14T14:19:20.281Z,84.20
2022-10-14T14:21:47.030Z,84.00
2022-10-14T14:24:24.918Z,83.80
2022-10-14T14:26:55.659Z,83.70
2022-10-14T14:29:29.614Z,83.40
2022-10-14T14:32:07.200Z,83.20
2022-10-14T14:34:35.730Z,83.10
2022-10-14T14:37:17.251Z,82.70
2022-10-14T14:40:08.256Z,82.70
2022-10-14T14:45:12.629Z,82.70
2022-10-14T14:47:40.488Z,82.90
2022-10-14T14:50:35.422Z,82.90
2022-10-14T14:53:16.006Z,82.90
2022-10-14T14:55:44.821Z,83.00
2022-10-14T14:58:39.547Z,83.00
2022-10-14T15:01:07.563Z,83.20
2022-10-14T15:04:13.405Z,83.10
2022-10-14T15:06:38.821Z,83.20
2022-10-14T15:09:18.625Z,83.20
2022-10-14T15:14:47.703Z,83.40
2022-10-14T15:17:37.814Z,83.50
2022-10-14T15:20:04.560Z,83.30
2022-10-14T15:22:34.255Z,83.20
2022-10-14T15:25:30.521Z,83.20
2022-10-14T15:27:59.535Z,83.20
2022-10-14T15:30:27.762Z,83.20
2022-10-14T15:33:20.479Z,83.20
2022-10-14T15:35:58.152Z,83.30
2022-10-14T15:38:26.031Z,83.40
2022-10-14T15:40:53.242Z,83.40
2022-10-14T15:43:22.947Z,83.40
2022-10-14T15:46:11.676Z,83.40
2022-10-14T15:48:40.832Z,83.30
2022-10-14T15:51:07.917Z,83.10
2022-10-14T15:53:34.626Z,83.20
2022-10-14T15:56:01.365Z,83.70
2022-10-14T15:58:28.223Z,83.00
2022-10-14T16:00:54.942Z,82.80
2022-10-14T16:03:21.819Z,82.40
2022-10-14T16:05:48.535Z,82.10
2022-10-14T16:08:15.413Z,81.90
2022-10-14T16:10:45.811Z,82.50
2022-10-14T16:13:12.991Z,82.20
2022-10-14T16:15:49.168Z,82.20
2022-10-14T16:18:15.959Z,82.30
2022-10-14T16:20:42.936Z,82.30
2022-10-14T16:23:20.808Z,82.20
2022-10-14T16:25:49.540Z,81.90
2022-10-14T16:28:17.983Z,81.90
2022-10-14T16:30:50.149Z,81.90
2022-10-14T16:33:22.001Z,81.70
2022-10-14T16:35:53.877Z,81.30
2022-10-14T16:38:21.126Z,81.10
2022-10-14T16:40:59.119Z,80.90
2022-10-14T16:43:26.824Z,80.70
2022-10-14T16:45:57.179Z,80.40
2022-10-14T16:48:23.844Z,80.10
2022-10-14T16:50:51.559Z,79.90
2022-10-14T16:53:37.933Z,79.70
2022-10-14T16:56:29.853Z,79.50
2022-10-14T16:58:57.466Z,79.40
2022-10-14T17:01:24.488Z,79.30
2022-10-14T17:03:51.198Z,79.10
2022-10-14T17:06:23.132Z,79.00
2022-10-14T17:08:51.689Z,78.80
2022-10-14T17:11:18.917Z,78.70
2022-10-14T17:13:46.007Z,78.70
2022-10-14T17:16:12.757Z,78.70
2022-10-14T17:18:39.524Z,78.60
2022-10-14T17:21:08.989Z,78.50
2022-10-14T17:23:36.640Z,78.20
2022-10-14T17:26:05.303Z,78.10
2022-10-14T17:28:32.732Z,78.00
2022-10-14T17:31:03.730Z,77.90
2022-10-14T17:33:31.441Z,77.70
2022-10-14T17:36:00.209Z,77.70
2022-10-14T17:38:28.965Z,77.60
2022-10-14T17:41:06.810Z,77.40
2022-10-14T17:43:33.934Z,77.30
2022-10-14T17:48:42.299Z,77.20
2022-10-14T17:51:12.931Z,77.10
2022-10-14T17:53:40.403Z,77.00
2022-10-14T17:56:09.697Z,76.70
2022-10-14T17:58:36.507Z,76.50
2022-10-14T18:01:07.328Z,76.20
2022-10-14T18:03:35.047Z,76.20
2022-10-14T18:06:15.607Z,76.10
2022-10-14T18:08:44.043Z,75.90
2022-10-14T18:11:13.082Z,75.80
2022-10-14T18:16:14.382Z,75.50
2022-10-14T18:18:42.049Z,75.40
2022-10-14T18:21:09.830Z,75.20
2022-10-14T18:23:41.020Z,74.90
2022-10-14T18:26:14.372Z,74.80
2022-10-14T18:28:47.813Z,74.70
2022-10-14T18:31:20.289Z,74.60
2022-10-14T18:33:48.619Z,74.70
2022-10-14T18:36:22.742Z,74.60
2022-10-14T18:38:54.240Z,74.60
2022-10-14T18:41:21.642Z,74.70
2022-10-14T18:43:48.491Z,74.60
2022-10-14T18:46:21.173Z,74.60
2022-10-14T18:48:52.856Z,74.70
2022-10-14T18:51:25.447Z,74.70
2022-10-14T18:53:55.108Z,74.70
2022-10-14T18:56:24.651Z,74.70
2022-10-14T18:59:12.418Z,74.70
2022-10-14T19:01:40.425Z,74.80
2022-10-14T19:06:36.392Z,74.80
2022-10-14T19:09:05.110Z,74.80
2022-10-14T19:11:34.344Z,74.80
2022-10-14T19:14:03.750Z,74.80
2022-10-14T19:16:33.223Z,74.90
2022-10-14T19:19:11.550Z,74.90
2022-10-14T19:21:39.308Z,74.80
2022-10-14T19:24:08.283Z,74.80
2022-10-14T19:26:37.835Z,74.80
2022-10-14T19:29:09.065Z,74.70
2022-10-14T19:31:38.660Z,74.60
2022-10-14T19:34:07.372Z,74.50
2022-10-14T19:36:37.105Z,74.50
2022-10-14T19:39:05.283Z,74.50
2022-10-14T19:41:34.363Z,74.40
2022-10-14T19:44:01.476Z,74.30
2022-10-14T19:46:29.199Z,74.10
2022-10-14T19:49:07.299Z,73.90
2022-10-14T19:51:34.861Z,73.80
2022-10-14T19:54:02.428Z,73.70
2022-10-14T19:56:30.564Z,73.60
2022-10-14T19:58:59.041Z,73.60
2022-10-14T20:01:28.260Z,73.60
2022-10-14T20:03:55.825Z,73.50
2022-10-14T20:06:23.963Z,73.50
2022-10-14T20:08:51.427Z,73.60
2022-10-14T20:11:22.364Z,73.60
2022-10-14T20:13:49.133Z,73.60
2022-10-14T20:16:16.365Z,73.60
2022-10-14T20:18:43.092Z,73.60
2022-10-14T20:21:13.946Z,73.60
2022-10-14T20:23:41.379Z,73.60
2022-10-14T20:26:15.875Z,73.70
2022-10-14T20:28:42.977Z,73.90
2022-10-14T20:31:13.061Z,73.90
2022-10-14T20:33:40.084Z,73.90
2022-10-14T20:36:10.460Z,73.90
2022-10-14T20:38:40.828Z,73.70
2022-10-14T20:41:14.830Z,73.60
2022-10-14T20:43:42.846Z,73.60
2022-10-14T20:46:09.905Z,73.60
2022-10-14T20:48:39.459Z,73.60
2022-10-14T20:51:15.014Z,73.60
2022-10-14T20:53:42.363Z,73.40
2022-10-14T20:56:11.091Z,73.20
2022-10-14T20:58:38.050Z,73.20
2022-10-14T21:01:15.813Z,73.00
2022-10-14T21:03:44.315Z,73.10
2022-10-14T21:06:14.048Z,72.90
2022-10-14T21:08:41.008Z,72.70
2022-10-14T21:11:13.821Z,72.60
2022-10-14T21:13:47.084Z,72.60
2022-10-14T21:16:15.295Z,72.40
2022-10-14T21:18:46.404Z,72.40
2022-10-14T21:21:16.534Z,72.50
2022-10-14T21:23:44.141Z,72.60
2022-10-14T21:26:11.322Z,72.80
2022-10-14T21:28:38.136Z,73.00
2022-10-14T21:31:06.951Z,73.30
2022-10-14T21:33:34.318Z,73.40
2022-10-14T21:36:10.240Z,73.50
2022-10-14T21:38:37.090Z,73.70
2022-10-14T21:41:04.906Z,73.70
2022-10-14T21:43:34.543Z,73.70
2022-10-14T21:46:06.230Z,73.80
2022-10-14T21:48:33.612Z,73.90
2022-10-14T21:51:11.971Z,74.00
2022-10-14T21:53:40.268Z,74.10
2022-10-14T21:56:09.516Z,74.10
2022-10-14T21:58:37.050Z,74.30
2022-10-14T22:01:07.913Z,74.30
2022-10-14T22:03:35.633Z,74.40
2022-10-14T22:08:39.440Z,75.00
2022-10-14T22:11:07.044Z,74.50
2022-10-14T22:13:35.007Z,74.50
2022-10-14T22:16:01.726Z,74.50
2022-10-14T22:18:28.471Z,74.50
2022-10-14T22:21:03.713Z,74.50
2022-10-14T22:23:30.956Z,74.40
2022-10-14T22:26:02.583Z,74.20
2022-10-14T22:28:30.798Z,74.10
2022-10-14T22:31:04.760Z,74.10
2022-10-14T22:33:34.482Z,74.00
2022-10-14T22:36:18.196Z,74.00
2022-10-14T22:38:48.574Z,73.90
2022-10-14T22:41:17.469Z,73.80
2022-10-14T22:43:52.564Z,73.70
2022-10-14T22:46:21.785Z,73.60
2022-10-14T22:48:50.083Z,73.60
2022-10-14T22:51:18.790Z,74.20
2022-10-14T22:53:47.856Z,73.60
2022-10-14T22:56:17.598Z,73.40
2022-10-14T22:58:44.547Z,73.40
2022-10-14T23:01:13.777Z,73.30
2022-10-14T23:03:41.345Z,73.30
2022-10-14T23:06:10.606Z,73.40
2022-10-14T23:08:38.072Z,73.40
2022-10-14T23:11:06.165Z,74.00
2022-10-14T23:13:33.617Z,73.60
2022-10-14T23:16:03.291Z,73.60
2022-10-14T23:18:32.926Z,73.80
2022-10-14T23:21:06.410Z,73.90
2022-10-14T23:23:33.125Z,74.00
2022-10-14T23:25:59.856Z,74.00
2022-10-14T23:28:26.687Z,74.00
2022-10-14T23:30:53.456Z,74.00
2022-10-14T23:33:20.177Z,74.00
2022-10-14T23:35:46.809Z,74.00
2022-10-14T23:38:13.572Z,74.10
2022-10-14T23:40:40.361Z,74.20
2022-10-14T23:43:07.064Z,74.20
2022-10-14T23:45:33.872Z,74.20
2022-10-14T23:48:00.540Z,74.20
2022-10-14T23:50:27.222Z,74.20
2022-10-14T23:52:53.916Z,74.20
2022-10-14T23:55:20.560Z,74.10
2022-10-14T23:57:49.243Z,74.20
